Time;durP1;ratioP1;P1;durP2;ratioP2;P2;SDS_P1;SDS_P2;PMS_P1;PMS_P2;Temp;Humidity;BMP_temperature;BMP_pressure;BME280_temperature;BME280_humidity;BME280_pressure;Samples;Min_cycle;Max_cycle;Signal;HPM_P1;HPM_P2
2023/06/25 00:00:35;;;;;;;0.00;0.00;;;;;;;;;;5072941;28;20048;-83
2023/06/25 00:03:01;;;;;;;0.00;0.00;;;;;;;;;;5072250;28;20074;-83
2023/06/25 00:05:27;;;;;;;0.00;0.00;;;;;;;;;;5074026;28;20041;-83
2023/06/25 00:07:53;;;;;;;0.00;0.00;;;;;;;;;;5072238;28;20048;-83
2023/06/25 00:10:19;;;;;;;0.00;0.00;;;;;;;;;;5072476;28;20440;-83
2023/06/25 00:12:45;;;;;;;0.00;0.00;;;;;;;;;;5072174;28;20048;-84
2023/06/25 00:15:13;;;;;;;0.00;0.00;;;;;;;;;;5072649;28;20059;-83
2023/06/25 00:17:39;;;;;;;0.00;0.00;;;;;;;;;;5073542;28;20049;-83
2023/06/25 00:20:06;;;;;;;0.00;0.00;;;;;;;;;;5055842;28;20067;-83
2023/06/25 00:22:32;;;;;;;0.00;0.00;;;;;;;;;;5073293;28;20044;-84
2023/06/25 00:24:58;;;;;;;0.00;0.00;;;;;;;;;;5055725;28;20127;-84
2023/06/25 00:27:24;;;;;;;0.00;0.00;;;;;;;;;;5072117;28;20041;-84
2023/06/25 00:29:50;;;;;;;0.00;0.00;;;;;;;;;;5072066;28;20429;-84
2023/06/25 00:32:16;;;;;;;0.00;0.00;;;;;;;;;;5072286;28;20044;-83
2023/06/25 00:34:42;;;;;;;0.00;0.00;;;;;;;;;;5055580;28;20051;-84
2023/06/25 00:37:17;;;;;;;0.00;0.00;;;;;;;;;;5073280;28;20110;-83
2023/06/25 00:39:44;;;;;;;0.00;0.00;;;;;;;;;;5055842;28;20048;-83
2023/06/25 00:42:10;;;;;;;0.00;0.00;;;;;;;;;;5071892;28;20488;-83
2023/06/25 00:44:40;;;;;;;0.00;0.00;;;;;;;;;;5072191;28;20044;-83
2023/06/25 00:47:12;;;;;;;0.00;0.00;;;;;;;;;;5055337;28;20043;-83
2023/06/25 00:49:45;;;;;;;0.00;0.00;;;;;;;;;;5055150;28;20048;-83
2023/06/25 00:52:11;;;;;;;0.00;0.00;;;;;;;;;;5071538;28;20541;-83
2023/06/25 00:54:41;;;;;;;0.00;0.00;;;;;;;;;;5073200;28;20128;-83
2023/06/25 00:57:08;;;;;;;0.98;0.75;;;;;;;;;;5071480;28;20454;-83
2023/06/25 00:59:40;;;;;;;0.00;0.00;;;;;;;;;;5071527;28;20052;-83
2023/06/25 01:02:15;;;;;;;0.10;0.00;;;;;;;;;;5071923;28;20111;-84
2023/06/25 01:04:45;;;;;;;0.00;0.00;;;;;;;;;;5072829;28;20480;-83
2023/06/25 01:07:17;;;;;;;0.00;0.00;;;;;;;;;;5071318;28;20123;-83
2023/06/25 01:09:44;;;;;;;0.00;0.00;;;;;;;;;;5071327;28;20124;-83
2023/06/25 01:12:10;;;;;;;0.00;0.00;;;;;;;;;;5072536;28;20036;-83
2023/06/25 01:14:36;;;;;;;0.00;0.00;;;;;;;;;;5054785;28;20364;-84
2023/06/25 01:17:02;;;;;;;0.00;0.00;;;;;;;;;;5071367;28;20045;-84
2023/06/25 01:19:31;;;;;;;0.00;0.00;;;;;;;;;;5071174;28;20068;-84
2023/06/25 01:22:01;;;;;;;0.00;0.00;;;;;;;;;;5071387;28;20059;-83
2023/06/25 01:24:28;;;;;;;0.00;0.00;;;;;;;;;;5072563;28;20123;-83
2023/06/25 01:26:59;;;;;;;0.00;0.00;;;;;;;;;;5071266;28;20036;-83
2023/06/25 01:29:26;;;;;;;0.00;0.00;;;;;;;;;;5054480;28;20423;-83
2023/06/25 01:31:52;;;;;;;0.00;0.00;;;;;;;;;;5072822;28;20048;-83
2023/06/25 01:34:21;;;;;;;0.00;0.00;;;;;;;;;;5071086;28;20044;-83
2023/06/25 01:36:51;;;;;;;0.00;0.00;;;;;;;;;;5071244;28;20094;-84
2023/06/25 01:39:17;;;;;;;0.00;0.00;;;;;;;;;;5070878;28;20040;-83
2023/06/25 01:41:44;;;;;;;0.00;0.00;;;;;;;;;;5054430;28;20076;-83
2023/06/25 01:44:15;;;;;;;0.00;0.00;;;;;;;;;;5070704;28;20572;-83
2023/06/25 01:46:41;;;;;;;0.00;0.00;;;;;;;;;;5071370;28;20117;-84
2023/06/25 01:49:07;;;;;;;0.00;0.00;;;;;;;;;;5071015;28;20124;-83
2023/06/25 01:51:33;;;;;;;0.00;0.00;;;;;;;;;;5072266;28;20468;-83
2023/06/25 01:53:59;;;;;;;0.00;0.00;;;;;;;;;;5073447;28;20045;-83
2023/06/25 01:56:25;;;;;;;0.00;0.00;;;;;;;;;;5074848;28;20114;-83
2023/06/25 01:58:53;;;;;;;0.00;0.00;;;;;;;;;;5074967;28;20051;-82
2023/06/25 02:01:19;;;;;;;0.00;0.00;;;;;;;;;;5075180;28;20049;-83
2023/06/25 02:03:45;;;;;;;0.00;0.00;;;;;;;;;;5074695;28;20138;-83
2023/06/25 02:06:11;;;;;;;0.00;0.00;;;;;;;;;;5074846;28;20531;-83
2023/06/25 02:08:37;;;;;;;0.00;0.00;;;;;;;;;;5074562;28;20040;-83
2023/06/25 02:11:03;;;;;;;0.00;0.00;;;;;;;;;;5074985;28;20123;-83
2023/06/25 02:13:29;;;;;;;0.00;0.00;;;;;;;;;;5074538;28;20044;-83
2023/06/25 02:15:55;;;;;;;0.00;0.00;;;;;;;;;;5076215;28;20052;-83
2023/06/25 02:18:21;;;;;;;0.00;0.00;;;;;;;;;;5074766;28;20049;-83
2023/06/25 02:20:47;;;;;;;0.00;0.00;;;;;;;;;;5074767;28;20207;-83
2023/06/25 02:23:13;;;;;;;0.00;0.00;;;;;;;;;;5074434;28;20063;-83
2023/06/25 02:25:39;;;;;;;0.00;0.00;;;;;;;;;;5074404;28;20068;-82
2023/06/25 02:28:05;;;;;;;0.00;0.00;;;;;;;;;;5074566;28;20083;-83
2023/06/25 02:30:31;;;;;;;0.00;0.00;;;;;;;;;;5057693;28;20557;-83
2023/06/25 02:32:57;;;;;;;0.00;0.00;;;;;;;;;;5074428;28;20079;-83
2023/06/25 02:35:23;;;;;;;0.00;0.00;;;;;;;;;;5074093;28;20532;-83
2023/06/25 02:37:49;;;;;;;0.00;0.00;;;;;;;;;;5075524;28;20043;-83
2023/06/25 02:40:15;;;;;;;0.00;0.00;;;;;;;;;;5074255;28;20052;-82
2023/06/25 02:42:40;;;;;;;0.00;0.00;;;;;;;;;;5075707;28;20556;-82
2023/06/25 02:45:07;;;;;;;0.00;0.00;;;;;;;;;;5075223;28;20036;-83
2023/06/25 02:47:32;;;;;;;0.00;0.00;;;;;;;;;;5075527;28;20094;-83
2023/06/25 02:49:58;;;;;;;0.00;0.00;;;;;;;;;;5073795;28;20069;-83
2023/06/25 02:52:24;;;;;;;0.00;0.00;;;;;;;;;;5073985;28;20041;-83
2023/06/25 02:54:50;;;;;;;0.00;0.00;;;;;;;;;;5074104;28;20099;-83
2023/06/25 02:57:16;;;;;;;0.00;0.00;;;;;;;;;;5074290;28;20511;-83
2023/06/25 02:59:42;;;;;;;0.00;0.00;;;;;;;;;;5073788;28;20064;-83
2023/06/25 03:02:08;;;;;;;0.00;0.00;;;;;;;;;;5073869;28;20046;-83
2023/06/25 03:04:34;;;;;;;0.00;0.00;;;;;;;;;;5073476;28;20510;-82
2023/06/25 03:07:00;;;;;;;0.00;0.00;;;;;;;;;;5074035;28;20071;-83
2023/06/25 03:09:26;;;;;;;0.00;0.00;;;;;;;;;;5073663;28;20040;-83
2023/06/25 03:11:52;;;;;;;0.00;0.00;;;;;;;;;;5057161;28;20392;-83
2023/06/25 03:14:18;;;;;;;0.00;0.00;;;;;;;;;;5073561;28;20051;-83
2023/06/25 03:16:44;;;;;;;0.00;0.00;;;;;;;;;;5075138;28;20036;-83
2023/06/25 03:19:11;;;;;;;0.00;0.00;;;;;;;;;;5073527;28;20432;-83
2023/06/25 03:21:36;;;;;;;0.00;0.00;;;;;;;;;;5073731;28;20048;-83
2023/06/25 03:24:03;;;;;;;0.00;0.00;;;;;;;;;;5073238;28;20502;-83
2023/06/25 03:26:28;;;;;;;0.00;0.00;;;;;;;;;;5073489;28;20037;-83
2023/06/25 03:28:56;;;;;;;0.00;0.00;;;;;;;;;;5073535;28;20052;-83
2023/06/25 03:31:22;;;;;;;0.00;0.00;;;;;;;;;;5073499;28;20507;-82
2023/06/25 03:33:48;;;;;;;0.00;0.00;;;;;;;;;;5073343;28;20045;-83
2023/06/25 03:36:14;;;;;;;0.00;0.00;;;;;;;;;;5073392;28;20040;-83
2023/06/25 03:38:40;;;;;;;0.00;0.00;;;;;;;;;;5073123;28;20040;-83
2023/06/25 03:41:06;;;;;;;0.00;0.00;;;;;;;;;;5073347;28;20186;-83
2023/06/25 03:43:32;;;;;;;0.00;0.00;;;;;;;;;;5072993;28;20048;-83
2023/06/25 03:45:58;;;;;;;0.00;0.00;;;;;;;;;;5072859;28;20048;-83
2023/06/25 03:48:24;;;;;;;0.00;0.00;;;;;;;;;;5073111;28;20041;-83
2023/06/25 03:50:50;;;;;;;0.00;0.00;;;;;;;;;;5072940;28;20036;-83
2023/06/25 03:53:17;;;;;;;0.00;0.00;;;;;;;;;;5074379;28;20113;-83
2023/06/25 03:55:43;;;;;;;0.00;0.00;;;;;;;;;;5072664;28;20040;-83
2023/06/25 03:58:09;;;;;;;0.00;0.00;;;;;;;;;;5072831;28;20067;-83
2023/06/25 04:00:35;;;;;;;0.00;0.00;;;;;;;;;;5072699;28;20044;-83
2023/06/25 04:03:01;;;;;;;0.00;0.00;;;;;;;;;;5072844;28;20072;-83
2023/06/25 04:05:27;;;;;;;0.00;0.00;;;;;;;;;;5072622;28;20432;-82
2023/06/25 04:07:53;;;;;;;0.00;0.00;;;;;;;;;;5072884;28;20072;-83
2023/06/25 04:10:19;;;;;;;0.00;0.00;;;;;;;;;;5072655;28;20384;-83
2023/06/25 04:12:45;;;;;;;0.00;0.00;;;;;;;;;;5072671;28;20503;-83
2023/06/25 04:15:11;;;;;;;0.00;0.00;;;;;;;;;;5072290;28;20074;-83
2023/06/25 04:17:39;;;;;;;0.00;0.00;;;;;;;;;;5072257;28;20051;-82
2023/06/25 04:20:06;;;;;;;0.00;0.00;;;;;;;;;;5073367;28;20189;-83
2023/06/25 04:22:32;;;;;;;0.00;0.00;;;;;;;;;;5073648;28;20133;-83
2023/06/25 04:24:57;;;;;;;0.00;0.00;;;;;;;;;;5072300;28;20064;-83
2023/06/25 04:27:25;;;;;;;0.00;0.00;;;;;;;;;;5072714;28;20044;-83
2023/06/25 04:29:51;;;;;;;0.00;0.00;;;;;;;;;;5073209;28;20126;-83
2023/06/25 04:32:17;;;;;;;0.00;0.00;;;;;;;;;;5073477;28;20481;-83
2023/06/25 04:34:43;;;;;;;0.00;0.00;;;;;;;;;;5071941;28;20098;-83
2023/06/25 04:37:09;;;;;;;0.00;0.00;;;;;;;;;;5055456;28;20053;-83
2023/06/25 04:39:35;;;;;;;0.00;0.00;;;;;;;;;;5073179;28;20047;-83
2023/06/25 04:42:01;;;;;;;0.00;0.00;;;;;;;;;;5072144;28;20572;-83
2023/06/25 04:44:27;;;;;;;0.00;0.00;;;;;;;;;;5072998;28;20052;-83
2023/06/25 04:46:54;;;;;;;0.00;0.00;;;;;;;;;;5071911;28;20502;-83
2023/06/25 04:49:20;;;;;;;0.00;0.00;;;;;;;;;;5073418;28;20066;-83
2023/06/25 04:51:46;;;;;;;0.00;0.00;;;;;;;;;;5072005;28;20131;-83
2023/06/25 04:54:13;;;;;;;0.00;0.00;;;;;;;;;;5055226;28;20105;-83
2023/06/25 04:56:39;;;;;;;0.00;0.00;;;;;;;;;;5072574;28;20053;-83
2023/06/25 04:59:05;;;;;;;0.00;0.00;;;;;;;;;;5071716;28;20108;-83
2023/06/25 05:01:31;;;;;;;0.00;0.00;;;;;;;;;;5054856;28;20127;-83
2023/06/25 05:03:57;;;;;;;0.00;0.00;;;;;;;;;;5071734;28;20059;-83
2023/06/25 05:06:23;;;;;;;0.00;0.00;;;;;;;;;;5071640;28;20036;-83
2023/06/25 05:08:49;;;;;;;0.00;0.00;;;;;;;;;;5072998;28;20040;-82
2023/06/25 05:11:15;;;;;;;0.00;0.00;;;;;;;;;;5073288;28;20369;-83
2023/06/25 05:13:41;;;;;;;0.00;0.00;;;;;;;;;;5072238;28;20048;-83
2023/06/25 05:16:07;;;;;;;0.80;0.17;;;;;;;;;;5071460;28;20047;-83
2023/06/25 05:18:33;;;;;;;0.00;0.00;;;;;;;;;;5071767;28;20040;-83
2023/06/25 05:20:59;;;;;;;0.00;0.00;;;;;;;;;;5071596;28;20094;-83
2023/06/25 05:23:25;;;;;;;0.00;0.00;;;;;;;;;;5071596;28;20048;-83
2023/06/25 05:25:51;;;;;;;0.00;0.00;;;;;;;;;;5071334;28;20132;-83
2023/06/25 05:28:17;;;;;;;0.00;0.00;;;;;;;;;;5070608;28;20067;-83
2023/06/25 05:30:43;;;;;;;0.00;0.00;;;;;;;;;;5072304;28;20040;-83
2023/06/25 05:33:09;;;;;;;0.00;0.00;;;;;;;;;;5071317;28;20400;-83
2023/06/25 05:35:35;;;;;;;0.00;0.00;;;;;;;;;;5072451;28;20155;-83
2023/06/25 05:38:01;;;;;;;0.00;0.00;;;;;;;;;;5071269;28;20194;-83
2023/06/25 05:40:28;;;;;;;0.00;0.00;;;;;;;;;;5054723;28;20036;-82
2023/06/25 05:42:54;;;;;;;0.00;0.00;;;;;;;;;;5054875;28;20116;-83
2023/06/25 05:45:21;;;;;;;0.00;0.00;;;;;;;;;;5071083;28;20411;-81
2023/06/25 05:47:47;;;;;;;0.00;0.00;;;;;;;;;;5072387;28;20040;-82
2023/06/25 05:50:12;;;;;;;0.00;0.00;;;;;;;;;;5054393;28;20400;-83
2023/06/25 05:52:38;;;;;;;0.00;0.00;;;;;;;;;;5072469;28;20098;-83
2023/06/25 05:55:05;;;;;;;0.00;0.00;;;;;;;;;;5071335;28;20053;-83
2023/06/25 05:57:31;;;;;;;0.00;0.00;;;;;;;;;;5071099;28;20052;-84
2023/06/25 05:59:57;;;;;;;0.00;0.00;;;;;;;;;;5070941;28;20488;-84
2023/06/25 06:02:23;;;;;;;0.00;0.00;;;;;;;;;;5070973;28;20147;-85
2023/06/25 06:04:49;;;;;;;0.00;0.00;;;;;;;;;;5071279;28;20044;-84
2023/06/25 06:07:15;;;;;;;0.00;0.00;;;;;;;;;;5072330;28;20468;-82
2023/06/25 06:09:41;;;;;;;0.00;0.00;;;;;;;;;;5070884;28;20048;-83
2023/06/25 06:12:07;;;;;;;0.00;0.00;;;;;;;;;;5070699;28;20037;-83
2023/06/25 06:14:38;;;;;;;0.00;0.00;;;;;;;;;;5070658;28;20064;-82
2023/06/25 06:17:04;;;;;;;0.00;0.00;;;;;;;;;;5070710;28;20052;-83
2023/06/25 06:19:30;;;;;;;0.00;0.00;;;;;;;;;;5070714;28;20454;-83
2023/06/25 06:21:56;;;;;;;0.00;0.00;;;;;;;;;;5070575;28;20041;-83
2023/06/25 06:24:22;;;;;;;0.00;0.00;;;;;;;;;;5071978;28;20062;-84
2023/06/25 06:26:49;;;;;;;0.00;0.00;;;;;;;;;;5070325;28;20493;-83
2023/06/25 06:29:15;;;;;;;0.00;0.00;;;;;;;;;;5070769;28;20368;-82
2023/06/25 06:31:41;;;;;;;0.00;0.00;;;;;;;;;;5054006;28;20037;-84
2023/06/25 06:34:08;;;;;;;0.00;0.00;;;;;;;;;;5070617;28;20059;-84
2023/06/25 06:36:33;;;;;;;0.00;0.00;;;;;;;;;;5070898;28;20044;-83
2023/06/25 06:38:59;;;;;;;0.00;0.00;;;;;;;;;;5071231;28;20116;-83
2023/06/25 06:41:25;;;;;;;0.00;0.00;;;;;;;;;;5057272;28;20142;-83
2023/06/25 06:43:51;;;;;;;0.00;0.00;;;;;;;;;;5074389;28;20040;-83
2023/06/25 06:46:17;;;;;;;0.00;0.00;;;;;;;;;;5057362;28;20041;-83
2023/06/25 06:48:43;;;;;;;0.00;0.00;;;;;;;;;;5074274;28;20589;-82
2023/06/25 06:51:09;;;;;;;0.00;0.00;;;;;;;;;;5073868;28;20210;-82
2023/06/25 06:53:35;;;;;;;0.00;0.00;;;;;;;;;;5074127;28;20373;-82
2023/06/25 06:56:01;;;;;;;0.00;0.00;;;;;;;;;;5073735;28;20179;-82
2023/06/25 06:58:27;;;;;;;0.00;0.00;;;;;;;;;;5074335;28;20060;-82
2023/06/25 07:00:53;;;;;;;0.00;0.00;;;;;;;;;;5073836;28;20192;-82
2023/06/25 07:03:19;;;;;;;0.00;0.00;;;;;;;;;;5074159;28;20044;-82
2023/06/25 07:05:45;;;;;;;0.00;0.00;;;;;;;;;;5075059;28;20056;-82
2023/06/25 07:08:12;;;;;;;0.00;0.00;;;;;;;;;;5075171;28;20400;-82
2023/06/25 07:10:38;;;;;;;0.00;0.00;;;;;;;;;;5073779;28;20036;-82
2023/06/25 07:13:04;;;;;;;0.00;0.00;;;;;;;;;;5073928;28;20044;-83
2023/06/25 07:15:30;;;;;;;0.00;0.00;;;;;;;;;;5073765;28;20479;-82
2023/06/25 07:17:56;;;;;;;0.00;0.00;;;;;;;;;;5073472;28;20051;-82
2023/06/25 07:20:22;;;;;;;0.30;0.10;;;;;;;;;;5074998;28;20115;-82
2023/06/25 07:22:48;;;;;;;0.00;0.00;;;;;;;;;;5074791;28;20461;-83
2023/06/25 07:25:14;;;;;;;0.00;0.00;;;;;;;;;;5073640;28;20150;-87
2023/06/25 07:27:40;;;;;;;0.00;0.00;;;;;;;;;;5056579;28;20040;-82
2023/06/25 07:30:06;;;;;;;0.00;0.00;;;;;;;;;;5073372;28;20045;-82
2023/06/25 07:32:32;;;;;;;0.00;0.00;;;;;;;;;;5073521;28;20254;-82
2023/06/25 07:34:58;;;;;;;0.00;0.00;;;;;;;;;;5074613;28;20144;-82
2023/06/25 07:37:24;;;;;;;0.00;0.00;;;;;;;;;;5074541;28;20040;-82
2023/06/25 07:39:50;;;;;;;0.10;0.05;;;;;;;;;;5076349;28;20503;-82
2023/06/25 07:42:16;;;;;;;0.00;0.00;;;;;;;;;;5072954;28;20127;-82
2023/06/25 07:44:42;;;;;;;0.00;0.00;;;;;;;;;;5074208;28;20461;-82
2023/06/25 07:47:08;;;;;;;0.00;0.00;;;;;;;;;;5073073;28;20045;-82
2023/06/25 07:49:35;;;;;;;0.00;0.00;;;;;;;;;;5072909;28;20161;-82
2023/06/25 07:52:03;;;;;;;0.00;0.00;;;;;;;;;;5072151;28;20080;-82
2023/06/25 07:54:29;;;;;;;0.00;0.00;;;;;;;;;;5074148;28;20504;-82
2023/06/25 07:56:54;;;;;;;0.00;0.00;;;;;;;;;;5073818;28;20096;-82
2023/06/25 07:59:20;;;;;;;0.00;0.00;;;;;;;;;;5073031;28;20040;-82
2023/06/25 08:01:46;;;;;;;0.00;0.00;;;;;;;;;;5072656;28;20566;-85
2023/06/25 08:04:13;;;;;;;0.00;0.00;;;;;;;;;;5074076;28;20044;-84
2023/06/25 08:06:39;;;;;;;0.00;0.00;;;;;;;;;;5074004;28;20048;-84
2023/06/25 08:09:05;;;;;;;0.00;0.00;;;;;;;;;;5072804;28;20044;-85
2023/06/25 08:11:31;;;;;;;0.00;0.00;;;;;;;;;;5072441;28;20037;-84
2023/06/25 08:13:57;;;;;;;0.00;0.00;;;;;;;;;;5072601;28;20048;-84
2023/06/25 08:16:28;;;;;;;0.00;0.00;;;;;;;;;;5073714;28;20044;-84
2023/06/25 08:18:54;;;;;;;0.10;0.00;;;;;;;;;;5073910;28;20033;-84
2023/06/25 08:21:20;;;;;;;0.00;0.00;;;;;;;;;;5074033;28;20037;-82
2023/06/25 08:23:46;;;;;;;0.00;0.00;;;;;;;;;;5073361;28;20119;-82
2023/06/25 08:26:15;;;;;;;0.00;0.00;;;;;;;;;;5073478;28;20052;-82
2023/06/25 08:28:42;;;;;;;0.00;0.00;;;;;;;;;;5073576;28;20098;-82
2023/06/25 08:31:08;;;;;;;0.00;0.00;;;;;;;;;;5072111;28;20446;-82
2023/06/25 08:33:34;;;;;;;0.00;0.00;;;;;;;;;;5071882;28;20040;-82
2023/06/25 08:36:00;;;;;;;0.00;0.00;;;;;;;;;;5072091;28;20098;-81
2023/06/25 08:38:27;;;;;;;0.00;0.00;;;;;;;;;;5071712;28;20120;-82
2023/06/25 08:40:53;;;;;;;0.00;0.00;;;;;;;;;;5071964;28;20076;-82
2023/06/25 08:43:20;;;;;;;0.00;0.00;;;;;;;;;;5072097;28;20052;-82
2023/06/25 08:45:47;;;;;;;0.00;0.00;;;;;;;;;;5073112;28;20036;-82
2023/06/25 08:48:16;;;;;;;0.00;0.00;;;;;;;;;;5071841;28;20509;-82
2023/06/25 08:50:43;;;;;;;0.00;0.00;;;;;;;;;;5071917;28;20072;-82
2023/06/25 08:53:09;;;;;;;0.00;0.00;;;;;;;;;;5071574;28;20473;-82
2023/06/25 08:55:35;;;;;;;0.00;0.00;;;;;;;;;;5071753;28;20392;-82
2023/06/25 08:58:01;;;;;;;0.00;0.00;;;;;;;;;;5072790;28;20629;-82
2023/06/25 09:00:28;;;;;;;0.00;0.00;;;;;;;;;;5071737;28;20160;-82
2023/06/25 09:02:54;;;;;;;0.00;0.00;;;;;;;;;;5072718;28;20036;-82
2023/06/25 09:05:25;;;;;;;0.00;0.00;;;;;;;;;;5072687;28;20047;-82
2023/06/25 09:07:51;;;;;;;0.00;0.00;;;;;;;;;;5071228;28;20040;-82
2023/06/25 09:10:18;;;;;;;0.00;0.00;;;;;;;;;;5071896;28;20046;-81
2023/06/25 09:12:45;;;;;;;0.00;0.00;;;;;;;;;;5054730;28;20036;-80
2023/06/25 09:15:11;;;;;;;0.00;0.00;;;;;;;;;;5071792;28;20044;-82
2023/06/25 09:17:37;;;;;;;0.00;0.00;;;;;;;;;;5071588;28;20059;-81
2023/06/25 09:20:07;;;;;;;0.00;0.00;;;;;;;;;;5071288;28;20040;-82
2023/06/25 09:22:33;;;;;;;0.00;0.00;;;;;;;;;;5071170;28;20045;-82
2023/06/25 09:25:00;;;;;;;0.00;0.00;;;;;;;;;;5071414;28;20044;-82
2023/06/25 09:27:26;;;;;;;0.00;0.00;;;;;;;;;;5072448;28;20583;-82
2023/06/25 09:29:56;;;;;;;0.00;0.00;;;;;;;;;;5072812;28;20076;-82
2023/06/25 09:32:22;;;;;;;0.00;0.00;;;;;;;;;;5071175;28;20094;-82
2023/06/25 09:34:48;;;;;;;0.00;0.00;;;;;;;;;;5072909;28;20040;-82
2023/06/25 09:37:14;;;;;;;0.00;0.00;;;;;;;;;;5072681;28;20040;-82
2023/06/25 09:39:40;;;;;;;0.00;0.00;;;;;;;;;;5072591;28;20396;-82
2023/06/25 09:42:06;;;;;;;0.10;0.05;;;;;;;;;;5072705;28;20166;-81
2023/06/25 09:44:34;;;;;;;0.00;0.00;;;;;;;;;;5071120;28;20048;-82
2023/06/25 09:47:07;;;;;;;0.00;0.00;;;;;;;;;;5071646;28;20043;-82
2023/06/25 09:49:33;;;;;;;0.00;0.00;;;;;;;;;;5071052;28;20076;-82
2023/06/25 09:52:02;;;;;;;0.00;0.00;;;;;;;;;;5071407;28;20075;-81
2023/06/25 09:54:29;;;;;;;0.10;0.00;;;;;;;;;;5071562;28;20507;-82
2023/06/25 09:56:58;;;;;;;0.00;0.00;;;;;;;;;;5072585;28;20059;-83
2023/06/25 09:59:26;;;;;;;0.00;0.00;;;;;;;;;;5070729;28;20499;-82
2023/06/25 10:01:52;;;;;;;0.00;0.00;;;;;;;;;;5076431;28;20043;-80
2023/06/25 10:04:19;;;;;;;0.00;0.00;;;;;;;;;;5072669;28;20549;-82
2023/06/25 10:06:47;;;;;;;0.00;0.00;;;;;;;;;;5071096;28;20052;-81
2023/06/25 10:09:14;;;;;;;0.00;0.00;;;;;;;;;;5071775;28;20048;-81
2023/06/25 10:11:55;;;;;;;0.00;0.00;;;;;;;;;;5072262;28;20127;-81
2023/06/25 10:14:21;;;;;;;0.00;0.00;;;;;;;;;;5071878;28;20136;-81
2023/06/25 10:16:52;;;;;;;0.00;0.00;;;;;;;;;;5075008;28;20075;-82
2023/06/25 10:19:22;;;;;;;0.00;0.00;;;;;;;;;;5074795;28;20048;-81
2023/06/25 10:22:06;;;;;;;0.00;0.00;;;;;;;;;;5076085;28;20047;-81
2023/06/25 10:24:39;;;;;;;0.00;0.00;;;;;;;;;;5075585;28;20047;-82
2023/06/25 10:27:05;;;;;;;0.00;0.00;;;;;;;;;;5074594;28;20281;-82
2023/06/25 10:29:41;;;;;;;0.00;0.00;;;;;;;;;;5075773;28;20059;-81
2023/06/25 10:32:07;;;;;;;0.00;0.00;;;;;;;;;;5074747;28;20051;-82
2023/06/25 10:34:40;;;;;;;0.00;0.00;;;;;;;;;;5074060;28;20048;-80
2023/06/25 10:37:07;;;;;;;0.00;0.00;;;;;;;;;;5075643;28;20044;-82
2023/06/25 10:39:37;;;;;;;0.00;0.00;;;;;;;;;;5074011;28;20049;-82
2023/06/25 10:42:03;;;;;;;0.00;0.00;;;;;;;;;;5075495;28;20044;-81
2023/06/25 10:44:31;;;;;;;0.00;0.00;;;;;;;;;;5075283;28;20419;-82
2023/06/25 10:47:03;;;;;;;0.00;0.00;;;;;;;;;;5074139;28;20472;-84
2023/06/25 10:49:29;;;;;;;0.00;0.00;;;;;;;;;;5073718;28;21707;-81
2023/06/25 10:51:58;;;;;;;0.20;0.00;;;;;;;;;;5074290;28;20453;-82
2023/06/25 10:54:24;;;;;;;0.00;0.00;;;;;;;;;;5075201;28;20040;-81
2023/06/25 10:56:53;;;;;;;0.00;0.00;;;;;;;;;;5074199;28;20063;-81
2023/06/25 10:59:23;;;;;;;0.00;0.00;;;;;;;;;;5057094;28;20052;-81
2023/06/25 11:01:51;;;;;;;0.00;0.00;;;;;;;;;;5073907;28;20040;-80
2023/06/25 11:04:17;;;;;;;0.00;0.00;;;;;;;;;;5056929;28;20048;-81
2023/06/25 11:06:44;;;;;;;0.00;0.00;;;;;;;;;;5073689;28;20040;-82
2023/06/25 11:09:11;;;;;;;0.00;0.00;;;;;;;;;;5073392;28;20314;-82
2023/06/25 11:11:38;;;;;;;0.00;0.00;;;;;;;;;;5073931;28;20498;-81
2023/06/25 11:14:04;;;;;;;0.00;0.00;;;;;;;;;;5073761;28;20040;-81
2023/06/25 11:16:30;;;;;;;0.00;0.00;;;;;;;;;;5073962;28;20048;-82
2023/06/25 11:18:56;;;;;;;0.00;0.00;;;;;;;;;;5073642;28;20048;-81
2023/06/25 11:21:22;;;;;;;0.00;0.00;;;;;;;;;;5073412;28;20305;-82
2023/06/25 11:23:48;;;;;;;0.00;0.00;;;;;;;;;;5074765;28;20282;-82
2023/06/25 11:26:17;;;;;;;0.00;0.00;;;;;;;;;;5073337;28;20617;-81
2023/06/25 11:28:43;;;;;;;0.00;0.00;;;;;;;;;;5074479;28;20535;-81
2023/06/25 11:31:09;;;;;;;0.00;0.00;;;;;;;;;;5073420;28;20051;-81
2023/06/25 11:33:35;;;;;;;0.00;0.00;;;;;;;;;;5074257;28;20037;-82
2023/06/25 11:36:09;;;;;;;0.00;0.00;;;;;;;;;;5073399;28;20070;-81
2023/06/25 11:38:35;;;;;;;0.00;0.00;;;;;;;;;;5072929;28;20480;-80
2023/06/25 11:41:01;;;;;;;0.00;0.00;;;;;;;;;;5074364;28;20047;-81
2023/06/25 11:43:27;;;;;;;0.00;0.00;;;;;;;;;;5072892;28;20181;-82
2023/06/25 11:45:53;;;;;;;0.00;0.00;;;;;;;;;;5056382;28;20411;-81
2023/06/25 11:48:20;;;;;;;0.00;0.00;;;;;;;;;;5074383;28;20366;-82
2023/06/25 11:50:49;;;;;;;0.00;0.00;;;;;;;;;;5072851;28;20514;-80
2023/06/25 11:53:15;;;;;;;0.00;0.00;;;;;;;;;;5073140;28;20098;-81
2023/06/25 11:55:41;;;;;;;0.00;0.00;;;;;;;;;;5074127;28;20087;-82
2023/06/25 11:58:11;;;;;;;0.00;0.00;;;;;;;;;;5072558;28;20055;-82
2023/06/25 12:00:37;;;;;;;0.00;0.00;;;;;;;;;;5072714;28;20048;-81
2023/06/25 12:03:03;;;;;;;0.00;0.00;;;;;;;;;;5056316;28;20056;-81
2023/06/25 12:05:29;;;;;;;0.00;0.00;;;;;;;;;;5055636;28;20036;-81
2023/06/25 12:07:55;;;;;;;0.00;0.00;;;;;;;;;;5073801;28;20047;-81
2023/06/25 12:10:21;;;;;;;0.32;0.28;;;;;;;;;;5073515;28;20051;-82
2023/06/25 12:12:47;;;;;;;0.00;0.00;;;;;;;;;;5072827;28;20041;-82
2023/06/25 12:15:13;;;;;;;0.00;0.00;;;;;;;;;;5073654;28;20048;-82
2023/06/25 12:17:39;;;;;;;0.00;0.00;;;;;;;;;;5072647;28;20044;-82
2023/06/25 12:20:06;;;;;;;0.00;0.00;;;;;;;;;;5055393;28;20322;-82
2023/06/25 12:22:31;;;;;;;0.00;0.00;;;;;;;;;;5072287;28;20127;-82
2023/06/25 12:24:57;;;;;;;0.20;0.08;;;;;;;;;;5073107;28;20448;-81
2023/06/25 12:27:23;;;;;;;0.00;0.00;;;;;;;;;;5073285;28;20169;-82
2023/06/25 12:29:49;;;;;;;0.00;0.00;;;;;;;;;;5072022;28;20082;-82
2023/06/25 12:32:15;;;;;;;0.00;0.00;;;;;;;;;;5071996;28;20037;-82
2023/06/25 12:34:41;;;;;;;0.00;0.00;;;;;;;;;;5073172;28;20044;-82
2023/06/25 12:37:07;;;;;;;0.00;0.00;;;;;;;;;;5071813;28;20122;-82
2023/06/25 12:39:33;;;;;;;0.00;0.00;;;;;;;;;;5072951;28;20075;-81
2023/06/25 12:41:59;;;;;;;0.00;0.00;;;;;;;;;;5073187;28;20043;-81
2023/06/25 12:44:25;;;;;;;0.00;0.00;;;;;;;;;;5072950;28;20051;-82
2023/06/25 12:46:51;;;;;;;0.00;0.00;;;;;;;;;;5071531;28;20511;-82
2023/06/25 12:49:17;;;;;;;0.00;0.00;;;;;;;;;;5071334;28;20066;-81
2023/06/25 12:51:43;;;;;;;0.00;0.00;;;;;;;;;;5072897;28;20036;-81
2023/06/25 12:54:09;;;;;;;0.00;0.00;;;;;;;;;;5071573;28;20036;-82
2023/06/25 12:56:35;;;;;;;0.47;0.10;;;;;;;;;;5071400;28;20055;-82
2023/06/25 12:59:01;;;;;;;0.00;0.00;;;;;;;;;;5071345;28;20456;-81
2023/06/25 13:01:28;;;;;;;0.00;0.00;;;;;;;;;;5054499;28;20041;-81
2023/06/25 13:03:54;;;;;;;0.00;0.00;;;;;;;;;;5071483;28;20041;-81
2023/06/25 13:06:20;;;;;;;0.00;0.00;;;;;;;;;;5072347;28;20048;-82
2023/06/25 13:08:46;;;;;;;0.00;0.00;;;;;;;;;;5054650;28;20111;-82
2023/06/25 13:11:12;;;;;;;0.00;0.00;;;;;;;;;;5070973;28;20049;-82
2023/06/25 13:13:38;;;;;;;0.00;0.00;;;;;;;;;;5071637;28;20044;-82
2023/06/25 13:16:04;;;;;;;0.00;0.00;;;;;;;;;;5072539;28;20048;-82
2023/06/25 13:18:30;;;;;;;0.00;0.00;;;;;;;;;;5071338;28;20044;-81
2023/06/25 13:20:56;;;;;;;0.00;0.00;;;;;;;;;;5072248;28;20051;-81
2023/06/25 13:23:22;;;;;;;0.00;0.00;;;;;;;;;;5071138;28;20484;-81
2023/06/25 13:25:48;;;;;;;0.00;0.00;;;;;;;;;;5054287;28;20504;-81
2023/06/25 13:28:14;;;;;;;0.00;0.00;;;;;;;;;;5071247;28;20427;-81
2023/06/25 13:30:40;;;;;;;0.00;0.00;;;;;;;;;;5070817;28;20400;-81
2023/06/25 13:33:06;;;;;;;0.00;0.00;;;;;;;;;;5072612;28;20134;-81
2023/06/25 13:35:32;;;;;;;0.00;0.00;;;;;;;;;;5072216;28;20076;-81
2023/06/25 13:37:58;;;;;;;0.00;0.00;;;;;;;;;;5071050;28;20044;-81
2023/06/25 13:40:24;;;;;;;0.00;0.00;;;;;;;;;;5070892;28;20040;-80
2023/06/25 13:42:50;;;;;;;0.00;0.00;;;;;;;;;;5071453;28;20052;-80
2023/06/25 13:45:16;;;;;;;0.00;0.00;;;;;;;;;;5072421;28;20499;-80
2023/06/25 13:47:42;;;;;;;0.00;0.00;;;;;;;;;;5055917;28;20135;-79
2023/06/25 13:50:09;;;;;;;0.00;0.00;;;;;;;;;;5075149;28;20434;-80
2023/06/25 13:52:35;;;;;;;0.00;0.00;;;;;;;;;;5059867;28;20520;-81
2023/06/25 13:55:01;;;;;;;0.00;0.00;;;;;;;;;;5076826;28;20049;-80
2023/06/25 13:57:27;;;;;;;0.00;0.00;;;;;;;;;;5076883;28;20056;-81
2023/06/25 13:59:53;;;;;;;0.00;0.00;;;;;;;;;;5075061;28;20063;-80
2023/06/25 14:02:19;;;;;;;0.00;0.00;;;;;;;;;;5075219;28;20511;-81
2023/06/25 14:04:45;;;;;;;0.00;0.00;;;;;;;;;;5075020;28;20044;-81
2023/06/25 14:07:12;;;;;;;0.00;0.00;;;;;;;;;;5077073;28;20371;-81
2023/06/25 14:09:38;;;;;;;0.00;0.00;;;;;;;;;;5058723;28;20059;-81
2023/06/25 14:12:04;;;;;;;0.00;0.00;;;;;;;;;;5074955;28;20498;-80
2023/06/25 14:14:30;;;;;;;0.00;0.00;;;;;;;;;;5075085;28;20094;-81
2023/06/25 14:16:56;;;;;;;0.00;0.00;;;;;;;;;;5076097;28;20041;-81
2023/06/25 14:19:22;;;;;;;0.00;0.00;;;;;;;;;;5075227;28;20040;-80
2023/06/25 14:21:48;;;;;;;0.00;0.00;;;;;;;;;;5075835;28;20040;-80
2023/06/25 14:24:14;;;;;;;0.00;0.00;;;;;;;;;;5074891;28;20487;-84
2023/06/25 14:26:40;;;;;;;0.00;0.00;;;;;;;;;;5076035;28;20122;-86
2023/06/25 14:29:06;;;;;;;0.43;0.03;;;;;;;;;;5074922;28;20040;-80
2023/06/25 14:31:32;;;;;;;0.00;0.00;;;;;;;;;;5074572;28;20045;-81
2023/06/25 14:33:58;;;;;;;0.00;0.00;;;;;;;;;;5075901;28;20150;-80
2023/06/25 14:36:24;;;;;;;0.00;0.00;;;;;;;;;;5074331;28;20123;-80
2023/06/25 14:38:50;;;;;;;0.00;0.00;;;;;;;;;;5075899;28;20100;-82